Soaring Guidance
Issued by NWS Reno, NV

Home | Current Version | Previous Version | Text Only | Print | Product List | Glossary On
Versions: 1 2 3 4 5 6 7 8 9 10 11 12 13 14
737
UXUS97 KREV 281353
SRGREV

SOARING FORECAST
NATIONAL WEATHER SERVICE - RENO NV
700 AM PDT THU JUL 28 2016

THIS SOARING FORECAST IS FOR THE EASTERN SIERRA AND WESTERN NEVADA
WITH SPECIFIC INDICES FOR THE GREATER RENO AREA.

THIS FORECAST IS PREPARED DAILY BY 700 AM AND IS NOT UPDATED.

FOR CURRENT FLIGHT CONDITIONS...FORECASTS...AND ADVISORIES...ACCESS
YOUR LOCAL BRIEFING OUTLET OR FLIGHT SERVICE STATION.

*******************************************************************
FORECASTED LOCAL INDICES FOR RENO:        TODAY     YESTERDAY
FORECASTED MAX TEMP AT RENO (DEG F).....    105         103
FORECASTED TRIGGER TEMPERATURE (DEG F)..     88          88
   EXCEEDED YESTERDAY BY 1155 AM PDT
FORECASTED MAXIMUM ALTITUDE (FT MSL)....  17600       17500
FORECASTED SOARING INDEX (FPM)..........   1128        1185
FORECASTED K-INDEX.........VALID 18Z....     17         -18
FORECASTED K-INDEX.........VALID 00Z....     22          -6
FORECASTED LIFTED INDEX....VALID 18Z....      7          11
FORECASTED LIFTED INDEX....VALID 00Z....      3           6

AFTERNOON WINDS ALOFT FORECAST
MSL (FT) WIND/TEMP
9000  9900/+23
10000 9900/+20
12000 9900/+14
14000 9901/+07
16000 9902/+01
18000 2406/-05
24000 2313/-18
30000 2611/-32
34000 2719/-42
39000 2728/-52

SLIDE MOUNTAIN DATA:
     DATE       TIME     TEMP  DEWPT   RH         WIND (MPH)
                        (F)   (F)           | DIR  SPEED GUST
2016-07-28    05:20      63    35     35    | 171    0    0
2016-07-28    05:00      63    35     35    | 323    0    0
2016-07-28    04:50      62    36     37    | 328    0    2
2016-07-28    04:30      63    36     37    | 332    1    4

RENO TAF FORECAST:
KRNO 281121Z 2812/2912 VRB04KT P6SM SKC
     FM282200 31010KT P6SM FEW120
     FM290400 VRB04KT P6SM SCT200

CARSON CITY TAF FORECAST:
KCXP 281121Z 2812/2912 VRB04KT P6SM SKC
     FM282100 27010KT P6SM FEW120
     FM290400 VRB04KT P6SM SCT200

OUTLOOK FOR THE RENO-CARSON CITY-MINDEN AREA:
.FRIDAY...SUNNY IN THE MORNING...THEN PARTLY CLOUDY WITH ISOLATED
SHOWERS AND THUNDERSTORMS IN THE AFTERNOON. HIGHS 101 TO 106.
LIGHT WINDS.

SUNRISE AND SUNSET
JULY 28 2016..........SUNRISE   556 AM PDT   SUNSET   815 PM PDT
JULY 29 2016..........SUNRISE   557 AM PDT   SUNSET   814 PM PDT



USA.gov is the U.S. government's official web portal to all federal, state and local government web resources and services.